createdAt,value
2024-01-05T00:00:43.827Z,1.30
2024-01-05T00:03:13.664Z,1.73
2024-01-05T00:05:41.651Z,1.23
2024-01-05T00:08:08.846Z,1.00
2024-01-05T00:10:36.202Z,1.40
2024-01-05T00:13:04.596Z,0.90
2024-01-05T00:15:32.085Z,1.08
2024-01-05T00:18:00.172Z,1.15
2024-01-05T00:20:30.613Z,1.17
2024-01-05T00:22:57.671Z,1.45
2024-01-05T00:25:24.665Z,1.02
2024-01-05T00:27:54.948Z,1.30
2024-01-05T00:30:25.625Z,1.20
2024-01-05T00:32:53.005Z,1.25
2024-01-05T00:35:20.055Z,1.20
2024-01-05T00:37:48.430Z,1.10
2024-01-05T00:40:16.493Z,1.13
2024-01-05T00:42:45.623Z,1.13
2024-01-05T00:45:12.838Z,1.30
2024-01-05T00:47:39.816Z,1.17
2024-01-05T00:50:11.565Z,1.33
2024-01-05T00:52:38.927Z,1.23
2024-01-05T00:55:08.378Z,1.13
2024-01-05T00:57:35.352Z,1.10
2024-01-05T01:00:02.547Z,1.30
2024-01-05T01:02:29.568Z,1.52
2024-01-05T01:04:59.771Z,1.20
2024-01-05T01:07:26.624Z,1.20
2024-01-05T01:09:53.683Z,1.13
2024-01-05T01:12:25.944Z,1.13
2024-01-05T01:14:55.052Z,1.37
2024-01-05T01:17:24.024Z,1.52
2024-01-05T01:19:53.488Z,1.23
2024-01-05T01:22:20.373Z,1.27
2024-01-05T01:24:47.444Z,1.10
2024-01-05T01:27:15.185Z,1.63
2024-01-05T01:29:44.524Z,1.15
2024-01-05T01:32:11.352Z,1.35
2024-01-05T01:34:41.884Z,1.02
2024-01-05T01:37:08.789Z,1.95
2024-01-05T01:39:36.594Z,1.30
2024-01-05T01:42:04.675Z,2.00
2024-01-05T01:44:32.295Z,1.38
2024-01-05T01:46:59.222Z,0.90
2024-01-05T01:49:26.211Z,1.25
2024-01-05T01:51:53.297Z,2.25
2024-01-05T01:54:21.189Z,1.40
2024-01-05T01:56:53.129Z,1.40
2024-01-05T01:59:20.029Z,1.15
2024-01-05T02:01:50.063Z,1.30
2024-01-05T02:04:17.961Z,1.55
2024-01-05T02:06:46.747Z,1.58
2024-01-05T02:09:13.848Z,1.35
2024-01-05T02:11:41.457Z,1.20
2024-01-05T02:14:08.997Z,1.42
2024-01-05T02:16:36.079Z,1.58
2024-01-05T02:19:04.674Z,1.20
2024-01-05T02:21:34.601Z,1.70
2024-01-05T02:24:01.687Z,1.52
2024-01-05T02:26:30.981Z,1.38
2024-01-05T02:28:59.659Z,1.63
2024-01-05T02:31:26.625Z,1.60
2024-01-05T02:33:54.193Z,1.42
2024-01-05T02:36:25.032Z,1.20
2024-01-05T02:38:52.561Z,1.20
2024-01-05T02:41:20.184Z,1.50
2024-01-05T02:43:48.288Z,1.45
2024-01-05T02:46:16.276Z,1.65
2024-01-05T02:48:44.840Z,1.25
2024-01-05T02:51:15.967Z,2.00
2024-01-05T02:53:43.122Z,1.67
2024-01-05T02:56:12.547Z,1.15
2024-01-05T02:58:41.277Z,1.60
2024-01-05T03:01:10.184Z,1.50
2024-01-05T03:03:37.124Z,2.17
2024-01-05T03:06:04.415Z,1.40
2024-01-05T03:08:33.496Z,1.45
2024-01-05T03:11:01.120Z,1.48
2024-01-05T03:14:19.477Z,1.60
2024-01-05T03:16:46.973Z,1.50
2024-01-05T03:19:15.881Z,1.60
2024-01-05T03:21:43.243Z,1.50
2024-01-05T03:24:15.463Z,1.20
2024-01-05T03:26:47.155Z,1.40
2024-01-05T03:29:15.190Z,1.50
2024-01-05T03:31:46.440Z,1.05
2024-01-05T03:34:15.666Z,1.40
2024-01-05T03:36:45.522Z,1.20
2024-01-05T03:39:12.860Z,1.30
2024-01-05T03:41:41.705Z,1.85
2024-01-05T03:44:10.232Z,1.20
2024-01-05T03:46:37.138Z,1.27
2024-01-05T03:49:06.300Z,1.58
2024-01-05T03:51:33.610Z,1.60
2024-01-05T03:54:03.034Z,1.50
2024-01-05T03:56:30.195Z,2.42
2024-01-05T03:58:58.384Z,5.78
2024-01-05T04:01:25.347Z,4.38
2024-01-05T04:03:54.710Z,2.83
2024-01-05T04:06:22.096Z,1.90
2024-01-05T04:08:50.124Z,1.90
2024-01-05T04:11:21.653Z,1.80
2024-01-05T04:13:49.225Z,2.50
2024-01-05T04:16:16.163Z,2.90
2024-01-05T04:18:43.369Z,2.63
2024-01-05T04:21:11.051Z,2.65
2024-01-05T04:23:38.728Z,1.50
2024-01-05T04:26:08.520Z,1.80
2024-01-05T04:28:35.813Z,2.03
2024-01-05T04:31:02.973Z,2.97
2024-01-05T04:33:31.368Z,2.60
2024-01-05T04:35:59.577Z,2.30
2024-01-05T04:38:28.213Z,2.50
2024-01-05T04:40:56.446Z,2.78
2024-01-05T04:43:26.402Z,1.90
2024-01-05T04:45:54.747Z,1.73
2024-01-05T04:48:22.897Z,2.15
2024-01-05T04:50:49.969Z,2.20
2024-01-05T04:53:17.169Z,1.90
2024-01-05T04:55:44.657Z,1.92
2024-01-05T04:58:11.886Z,2.17
2024-01-05T05:00:38.764Z,1.90
2024-01-05T05:03:06.954Z,1.80
2024-01-05T05:05:34.013Z,2.20
2024-01-05T05:26:53.077Z,2.58
2024-01-05T05:29:20.796Z,3.15
2024-01-05T05:31:47.988Z,3.08
2024-01-05T05:34:19.099Z,2.85
2024-01-05T05:36:51.128Z,3.03
2024-01-05T05:39:18.068Z,3.80
2024-01-05T05:41:47.544Z,2.72
2024-01-05T05:44:15.937Z,2.58
2024-01-05T05:46:44.541Z,1.95
2024-01-05T05:49:13.880Z,2.28
2024-01-05T05:51:41.999Z,2.03
2024-01-05T05:54:09.577Z,2.38
2024-01-05T05:56:37.023Z,1.70
2024-01-05T05:59:04.701Z,2.00
2024-01-05T06:01:32.934Z,1.88
2024-01-05T06:04:17.450Z,2.40
2024-01-05T06:06:45.289Z,2.50
2024-01-05T06:19:55.010Z,1.80
2024-01-05T06:22:22.796Z,1.80
2024-01-05T06:24:55.760Z,2.05
2024-01-05T06:27:29.091Z,2.17
2024-01-05T06:30:10.351Z,2.10
2024-01-05T06:32:39.438Z,3.05
2024-01-05T06:35:09.748Z,3.08
2024-01-05T06:37:37.392Z,2.40
2024-01-05T06:40:06.751Z,2.58
2024-01-05T06:42:34.290Z,2.22
2024-01-05T06:45:03.829Z,2.30
2024-01-05T06:47:31.106Z,2.53
2024-01-05T06:49:58.741Z,2.30
2024-01-05T06:52:29.764Z,3.97
2024-01-05T06:54:56.856Z,2.83
2024-01-05T06:57:24.899Z,3.65
2024-01-05T06:59:54.484Z,3.38
2024-01-05T07:02:22.463Z,3.05
2024-01-05T07:04:51.736Z,3.03
2024-01-05T07:07:20.904Z,3.13
2024-01-05T07:09:50.091Z,3.80
2024-01-05T07:12:19.050Z,4.28
2024-01-05T07:14:46.772Z,18.05
2024-01-05T07:17:15.878Z,7.15
2024-01-05T07:19:47.681Z,4.35
2024-01-05T07:22:17.864Z,4.97
2024-01-05T07:24:45.811Z,6.10
2024-01-05T07:27:37.689Z,7.70
2024-01-05T07:30:09.608Z,5.28
2024-01-05T07:32:39.547Z,3.20
2024-01-05T07:35:12.414Z,3.83
2024-01-05T07:37:40.305Z,3.47
2024-01-05T07:40:08.280Z,3.88
2024-01-05T07:42:37.561Z,3.00
2024-01-05T07:45:08.269Z,3.70
2024-01-05T07:47:37.725Z,3.08
2024-01-05T07:50:05.592Z,3.50
2024-01-05T07:52:33.161Z,2.50
2024-01-05T07:55:05.943Z,3.33
2024-01-05T08:00:19.269Z,2.50
2024-01-05T08:02:48.641Z,2.80
2024-01-05T08:05:17.317Z,3.15
2024-01-05T08:07:48.231Z,2.35
2024-01-05T08:10:16.965Z,2.10
2024-01-05T08:12:47.623Z,2.10
2024-01-05T08:15:16.387Z,2.58
2024-01-05T08:17:44.310Z,1.90
2024-01-05T08:20:13.402Z,2.20
2024-01-05T08:22:41.955Z,2.03
2024-01-05T08:25:11.880Z,1.90
2024-01-05T08:27:41.548Z,2.88
2024-01-05T08:30:15.892Z,2.05
2024-01-05T08:32:51.040Z,2.35
2024-01-05T08:35:24.512Z,2.75
2024-01-05T08:37:52.232Z,1.85
2024-01-05T08:40:20.081Z,2.08
2024-01-05T08:42:54.543Z,2.03
2024-01-05T08:45:24.173Z,1.95
2024-01-05T09:17:39.041Z,5.03
2024-01-05T09:20:07.007Z,4.43
2024-01-05T09:22:37.749Z,4.00
2024-01-05T09:25:09.842Z,6.13
2024-01-05T09:27:38.585Z,5.68
2024-01-05T09:30:10.735Z,4.85
2024-01-05T09:32:43.150Z,3.17
2024-01-05T09:35:11.272Z,2.90
2024-01-05T09:37:38.928Z,3.40
2024-01-05T09:40:07.236Z,5.18
2024-01-05T09:42:35.017Z,3.38
2024-01-05T09:45:06.190Z,3.78
2024-01-05T09:47:38.170Z,4.22
2024-01-05T09:50:07.098Z,3.03
2024-01-05T09:52:38.460Z,3.05
2024-01-05T09:55:06.079Z,3.50
2024-01-05T09:57:33.016Z,3.60
2024-01-05T10:00:01.684Z,3.22
2024-01-05T10:02:34.619Z,3.72
2024-01-05T10:05:02.872Z,2.50
2024-01-05T10:07:34.322Z,2.90
2024-01-05T10:10:02.610Z,3.42
2024-01-05T10:12:33.566Z,4.10
2024-01-05T10:15:09.235Z,3.60
2024-01-05T10:17:42.932Z,3.33
2024-01-05T10:20:15.522Z,3.17
2024-01-05T10:22:43.524Z,3.17
2024-01-05T10:25:17.385Z,3.33
2024-01-05T10:27:48.025Z,3.30
2024-01-05T10:30:32.449Z,4.07
2024-01-05T10:33:09.624Z,4.63
2024-01-05T10:35:42.544Z,5.78
2024-01-05T10:38:13.691Z,7.80
2024-01-05T10:40:43.574Z,7.28
2024-01-05T10:43:19.262Z,8.15
2024-01-05T15:42:03.339Z,13.68
2024-01-05T15:44:30.971Z,14.25
2024-01-05T15:46:57.895Z,13.38
2024-01-05T15:49:39.905Z,13.98
2024-01-05T15:52:07.281Z,13.38
2024-01-05T15:54:36.058Z,14.13
2024-01-05T15:57:06.365Z,12.45
2024-01-05T15:59:38.784Z,14.73
2024-01-05T16:02:06.226Z,12.68
2024-01-05T16:04:36.287Z,13.40
2024-01-05T16:07:04.991Z,12.80
2024-01-05T16:09:31.927Z,14.02
2024-01-05T18:13:16.737Z,14.48
2024-01-05T18:15:47.408Z,13.35
2024-01-05T18:18:42.748Z,12.27
2024-01-05T18:36:24.933Z,14.98
2024-01-05T18:50:11.031Z,15.32
2024-01-05T18:52:45.753Z,16.42
2024-01-05T18:55:20.587Z,18.00
2024-01-05T18:57:55.776Z,17.65
2024-01-05T19:17:38.061Z,17.10
2024-01-05T19:20:19.292Z,15.50
2024-01-05T19:54:22.134Z,16.83
2024-01-05T20:02:34.538Z,17.67
2024-01-05T20:07:52.760Z,18.67
2024-01-05T20:13:18.119Z,18.58
2024-01-05T20:21:28.929Z,19.20
2024-01-05T20:24:03.300Z,17.08
2024-01-05T20:26:40.040Z,18.95
2024-01-05T20:31:56.349Z,16.70
2024-01-05T20:34:26.224Z,18.83
2024-01-05T20:36:57.776Z,19.90
2024-01-05T20:42:11.787Z,19.55
2024-01-05T20:44:40.925Z,19.73
2024-01-05T20:58:46.439Z,22.13
2024-01-05T21:01:28.991Z,21.52
2024-01-05T21:09:35.443Z,19.77
2024-01-05T21:12:20.796Z,18.80
2024-01-05T21:14:48.396Z,19.10
2024-01-05T21:17:23.780Z,19.58
2024-01-05T21:20:01.396Z,20.83
2024-01-05T21:22:33.959Z,19.55
2024-01-05T21:27:42.753Z,20.42
2024-01-05T21:30:22.159Z,18.85
2024-01-05T21:32:52.993Z,18.45
2024-01-05T21:35:25.098Z,18.55
2024-01-05T21:40:43.759Z,19.50
2024-01-05T21:43:10.980Z,17.95
2024-01-05T21:45:38.184Z,18.08
2024-01-05T21:48:08.011Z,19.52
2024-01-05T23:11:31.677Z,17.33
2024-01-05T23:13:59.607Z,16.77
2024-01-05T23:16:28.614Z,15.57
2024-01-05T23:19:04.568Z,16.50
2024-01-05T23:21:33.994Z,16.67
2024-01-05T23:24:02.436Z,18.27
2024-01-05T23:26:34.076Z,16.23
2024-01-05T23:29:06.794Z,18.50
2024-01-05T23:31:40.287Z,20.15
2024-01-05T23:34:16.539Z,19.98
2024-01-05T23:36:50.046Z,18.85
2024-01-05T23:39:21.307Z,17.92
2024-01-05T23:41:51.602Z,17.83
2024-01-05T23:44:19.726Z,18.00
2024-01-05T23:46:52.837Z,15.07
2024-01-05T23:49:21.741Z,15.88
2024-01-05T23:51:49.395Z,17.15
2024-01-05T23:54:20.022Z,17.92
2024-01-05T23:56:50.812Z,17.15
2024-01-05T23:59:19.177Z,16.15
